createdAt,value
2017-04-07T00:01:15.734Z,22.98
2017-04-07T00:02:15.504Z,23
2017-04-07T00:03:15.438Z,22.99
2017-04-07T00:04:15.372Z,23.05
2017-04-07T00:05:15.311Z,23.02
2017-04-07T00:06:15.252Z,22.96
2017-04-07T00:07:14.892Z,23.02
2017-04-07T00:08:15.123Z,22.98
2017-04-07T00:09:15.068Z,23.02
2017-04-07T00:10:15.002Z,23.02
2017-04-07T00:11:14.944Z,22.98
2017-04-07T00:12:14.873Z,22.98
2017-04-07T00:13:14.809Z,22.94
2017-04-07T00:14:14.746Z,22.93
2017-04-07T00:15:14.685Z,22.99
2017-04-07T00:16:14.015Z,22.98
2017-04-07T00:17:14.555Z,22.96
2017-04-07T00:18:14.502Z,22.99
2017-04-07T00:19:14.129Z,23.02
2017-04-07T00:20:14.070Z,22.98
2017-04-07T00:21:14.013Z,23
2017-04-07T00:22:14.256Z,22.99
2017-04-07T00:23:13.885Z,22.99
2017-04-07T00:24:13.814Z,23.02
2017-04-07T00:25:14.059Z,23.02
2017-04-07T00:26:13.994Z,22.98
2017-04-07T00:27:13.930Z,22.93
2017-04-07T00:28:13.873Z,22.98
2017-04-07T00:29:13.805Z,23
2017-04-07T00:30:13.741Z,23.03
2017-04-07T00:31:13.377Z,23.02
2017-04-07T00:32:13.613Z,22.96
2017-04-07T00:33:13.552Z,22.99
2017-04-07T00:34:13.190Z,22.98
2017-04-07T00:35:13.429Z,23
2017-04-07T00:36:13.371Z,22.93
2017-04-07T00:37:13.305Z,22.9
2017-04-07T00:38:13.238Z,22.96
2017-04-07T00:39:13.181Z,22.98
2017-04-07T00:40:13.116Z,22.96
2017-04-07T00:41:13.053Z,22.99
2017-04-07T00:42:12.991Z,23.05
2017-04-07T00:43:12.625Z,22.99
2017-04-07T00:44:12.861Z,22.99
2017-04-07T00:45:12.510Z,23.02
2017-04-07T00:46:12.737Z,22.98
2017-04-07T00:47:12.677Z,23.03
2017-04-07T00:48:12.621Z,23.02
2017-04-07T00:49:12.551Z,22.91
2017-04-07T00:50:12.487Z,23
2017-04-07T00:51:12.428Z,22.96
2017-04-07T00:52:12.365Z,22.99
2017-04-07T00:53:12.297Z,23
2017-04-07T00:54:12.239Z,22.98
2017-04-07T00:55:12.173Z,22.99
2017-04-07T00:56:11.809Z,22.99
2017-04-07T00:57:12.055Z,23.02
2017-04-07T00:58:11.987Z,22.99
2017-04-07T00:59:11.926Z,22.98
2017-04-07T01:00:11.862Z,23.02
2017-04-07T01:01:11.495Z,23
2017-04-07T01:02:11.736Z,23
2017-04-07T01:03:11.677Z,22.98
2017-04-07T01:04:11.606Z,22.98
2017-04-07T01:05:11.551Z,23.03
2017-04-07T01:06:11.489Z,23
2017-04-07T01:07:11.428Z,23
2017-04-07T01:08:11.374Z,23.02
2017-04-07T01:09:11.296Z,23.02
2017-04-07T01:10:11.240Z,23
2017-04-07T01:11:10.866Z,22.99
2017-04-07T01:12:11.107Z,22.98
2017-04-07T01:13:10.745Z,23.02
2017-04-07T01:14:10.678Z,22.93
2017-04-07T01:15:10.919Z,23.02
2017-04-07T01:16:10.858Z,23.03
2017-04-07T01:17:10.793Z,22.99
2017-04-07T01:18:10.742Z,22.99
2017-04-07T01:19:10.675Z,22.99
2017-04-07T01:20:10.606Z,22.99
2017-04-07T01:21:10.540Z,22.99
2017-04-07T01:22:10.181Z,23
2017-04-07T01:23:10.439Z,22.98
2017-04-07T01:24:10.057Z,22.99
2017-04-07T01:25:10.295Z,23
2017-04-07T01:26:09.927Z,23.02
2017-04-07T01:27:10.164Z,23
2017-04-07T01:28:10.137Z,22.98
2017-04-07T01:29:10.044Z,23
2017-04-07T01:30:09.978Z,23.02
2017-04-07T01:31:09.923Z,23.03
2017-04-07T01:32:09.854Z,22.98
2017-04-07T01:33:09.794Z,22.99
2017-04-07T01:34:09.727Z,22.98
2017-04-07T01:35:09.666Z,23
2017-04-07T01:36:09.604Z,23.02
2017-04-07T01:37:09.537Z,22.99
2017-04-07T01:38:09.488Z,23.02
2017-04-07T01:39:09.427Z,22.98
2017-04-07T01:40:09.505Z,22.99
2017-04-07T01:41:09.291Z,22.99
2017-04-07T01:42:09.231Z,22.98
2017-04-07T01:43:08.867Z,22.99
2017-04-07T01:44:09.108Z,23
2017-04-07T01:45:09.040Z,22.91
2017-04-07T01:46:08.980Z,22.93
2017-04-07T01:47:08.914Z,23.02
2017-04-07T01:48:08.856Z,22.98
2017-04-07T01:49:08.489Z,23
2017-04-07T01:50:08.422Z,23.05
2017-04-07T01:51:08.663Z,23.05
2017-04-07T01:52:08.603Z,23
2017-04-07T01:53:08.537Z,23
2017-04-07T01:54:08.478Z,22.99
2017-04-07T01:55:08.143Z,23.02
2017-04-07T01:56:08.348Z,23
2017-04-07T01:57:08.286Z,22.99
2017-04-07T01:58:08.225Z,22.99
2017-04-07T01:59:08.163Z,23.02
2017-04-07T02:00:07.495Z,22.98
2017-04-07T02:01:08.060Z,22.99
2017-04-07T02:02:07.366Z,22.94
2017-04-07T02:03:07.927Z,22.96
2017-04-07T02:04:07.872Z,23.02
2017-04-07T02:05:07.484Z,22.91
2017-04-07T02:06:07.722Z,23.02
2017-04-07T02:07:07.664Z,22.94
2017-04-07T02:08:07.597Z,22.96
2017-04-07T02:09:07.533Z,22.98
2017-04-07T02:10:07.514Z,22.98
2017-04-07T02:11:07.408Z,23.03
2017-04-07T02:12:07.378Z,23
2017-04-07T02:13:06.990Z,23.03
2017-04-07T02:14:07.220Z,23
2017-04-07T02:15:07.169Z,23.03
2017-04-07T02:16:07.110Z,22.99
2017-04-07T02:17:07.037Z,23.02
2017-04-07T02:18:06.971Z,23
2017-04-07T02:19:06.908Z,23.03
2017-04-07T02:20:06.848Z,22.99
2017-04-07T02:21:06.783Z,22.96
2017-04-07T02:22:06.722Z,23
2017-04-07T02:23:06.659Z,22.98
2017-04-07T02:24:06.593Z,23
2017-04-07T02:25:06.536Z,22.96
2017-04-07T02:26:06.471Z,23
2017-04-07T02:27:06.406Z,23.03
2017-04-07T02:28:06.340Z,23.03
2017-04-07T02:29:06.279Z,23
2017-04-07T02:30:06.217Z,23.02
2017-04-07T02:31:06.157Z,22.99
2017-04-07T02:32:06.092Z,23.03
2017-04-07T02:33:06.029Z,22.96
2017-04-07T02:34:05.995Z,22.91
2017-04-07T02:35:05.906Z,23.02
2017-04-07T02:36:05.840Z,22.99
2017-04-07T02:37:05.498Z,23.03
2017-04-07T02:38:05.723Z,23.03
2017-04-07T02:39:05.663Z,22.98
2017-04-07T02:40:05.589Z,23.03
2017-04-07T02:41:05.541Z,23
2017-04-07T02:42:05.478Z,22.96
2017-04-07T02:43:05.401Z,22.96
2017-04-07T02:44:05.338Z,22.96
2017-04-07T02:45:05.300Z,22.94
2017-04-07T02:46:05.211Z,23.03
2017-04-07T02:47:05.152Z,23.02
2017-04-07T02:48:05.086Z,23.03
2017-04-07T02:49:05.022Z,23.03
2017-04-07T02:50:05.025Z,22.96
2017-04-07T02:51:04.925Z,22.96
2017-04-07T02:52:04.837Z,22.99
2017-04-07T02:53:04.472Z,22.93
2017-04-07T02:54:04.710Z,23
2017-04-07T02:55:04.349Z,22.99
2017-04-07T02:56:04.586Z,23
2017-04-07T02:57:04.526Z,22.91
2017-04-07T02:58:04.164Z,22.94
2017-04-07T02:59:04.402Z,23.03
2017-04-07T03:00:04.342Z,22.9
2017-04-07T03:01:04.308Z,22.94
2017-04-07T03:02:04.210Z,22.99
2017-04-07T03:03:04.147Z,23.02
2017-04-07T03:04:03.784Z,23
2017-04-07T03:05:04.022Z,22.91
2017-04-07T03:06:03.959Z,22.91
2017-04-07T03:07:03.901Z,22.93
2017-04-07T03:08:03.840Z,23.03
2017-04-07T03:09:03.470Z,22.98
2017-04-07T03:10:03.706Z,22.94
2017-04-07T03:11:03.343Z,23
2017-04-07T03:12:03.585Z,23.03
2017-04-07T03:13:03.520Z,22.93
2017-04-07T03:14:03.458Z,22.93
2017-04-07T03:15:03.398Z,22.98
2017-04-07T03:16:03.334Z,22.98
2017-04-07T03:17:03.270Z,22.98
2017-04-07T03:18:03.227Z,22.94
2017-04-07T03:19:03.163Z,23.03
2017-04-07T03:20:03.082Z,22.99
2017-04-07T03:21:02.717Z,22.96
2017-04-07T03:22:02.656Z,23.02
2017-04-07T03:23:02.896Z,22.91
2017-04-07T03:24:02.832Z,22.96
2017-04-07T03:25:02.466Z,22.91
2017-04-07T03:26:02.703Z,22.99
2017-04-07T03:27:02.648Z,23.02
2017-04-07T03:28:02.580Z,22.99
2017-04-07T03:29:02.516Z,23
2017-04-07T03:30:02.461Z,23.03
2017-04-07T03:31:02.393Z,22.98
2017-04-07T03:32:02.338Z,22.98
2017-04-07T03:33:02.268Z,23
2017-04-07T03:34:02.204Z,22.96
2017-04-07T03:35:02.140Z,23.03
2017-04-07T03:36:02.076Z,22.94
2017-04-07T03:37:02.018Z,23.02
2017-04-07T03:38:01.952Z,22.93
2017-04-07T03:39:01.888Z,23.02
2017-04-07T03:40:01.826Z,22.91
2017-04-07T03:41:01.768Z,22.99
2017-04-07T03:42:01.703Z,22.93
2017-04-07T03:43:01.642Z,22.96
2017-04-07T03:44:01.273Z,22.9
2017-04-07T03:45:01.516Z,23
2017-04-07T03:46:01.452Z,22.98
2017-04-07T03:47:01.397Z,23
2017-04-07T03:48:01.333Z,22.9
2017-04-07T03:49:01.263Z,22.99
2017-04-07T03:50:01.201Z,22.98
2017-04-07T03:51:01.141Z,22.98
2017-04-07T03:52:01.075Z,22.96
2017-04-07T03:53:01.015Z,22.99
2017-04-07T03:54:00.949Z,23.05
2017-04-07T03:55:00.889Z,22.96
2017-04-07T03:56:00.821Z,22.91
2017-04-07T03:57:00.761Z,22.99
2017-04-07T03:58:00.705Z,22.91
2017-04-07T03:59:00.334Z,22.98
2017-04-07T04:00:00.273Z,22.99
2017-04-07T04:01:00.210Z,22.87
2017-04-07T04:02:00.458Z,22.96
2017-04-07T04:03:00.083Z,22.96
2017-04-07T04:04:00.321Z,22.9
2017-04-07T04:05:00.260Z,22.98
2017-04-07T04:05:59.895Z,22.9
2017-04-07T04:07:00.133Z,23
2017-04-07T04:08:00.073Z,23.03
2017-04-07T04:09:00.007Z,22.99
2017-04-07T04:09:59.950Z,22.9
2017-04-07T04:10:59.882Z,22.99
2017-04-07T04:11:59.821Z,22.93
2017-04-07T04:12:59.759Z,22.93
2017-04-07T04:13:59.392Z,22.93
2017-04-07T04:14:59.629Z,22.96
2017-04-07T04:15:59.574Z,22.88
2017-04-07T04:16:59.508Z,22.88
2017-04-07T04:17:59.444Z,22.99
2017-04-07T04:18:59.385Z,22.9
2017-04-07T04:19:59.316Z,22.98
2017-04-07T04:20:59.259Z,22.93
2017-04-07T04:21:59.196Z,22.87
2017-04-07T04:22:59.133Z,22.98
2017-04-07T04:23:59.100Z,22.94
2017-04-07T04:24:59.004Z,22.98
2017-04-07T04:25:58.958Z,22.98
2017-04-07T04:26:58.878Z,22.98
2017-04-07T04:27:58.816Z,22.87
2017-04-07T04:28:58.757Z,22.94
2017-04-07T04:29:58.695Z,22.9
2017-04-07T04:30:58.639Z,22.94
2017-04-07T04:31:58.567Z,23
2017-04-07T04:32:58.508Z,22.94
2017-04-07T04:33:58.442Z,22.99
2017-04-07T04:34:58.392Z,23
2017-04-07T04:35:58.320Z,22.9
2017-04-07T04:36:58.256Z,22.9
2017-04-07T04:37:57.897Z,22.94
2017-04-07T04:38:58.129Z,22.96
2017-04-07T04:39:58.064Z,22.94
2017-04-07T04:40:58.002Z,22.9
2017-04-07T04:41:57.943Z,22.88
2017-04-07T04:42:57.577Z,22.98
2017-04-07T04:43:57.514Z,22.94
2017-04-07T04:44:57.752Z,22.94
2017-04-07T04:45:57.687Z,22.87
2017-04-07T04:46:57.628Z,22.94
2017-04-07T04:47:57.561Z,22.94
2017-04-07T04:48:57.500Z,22.99
2017-04-07T04:49:57.438Z,22.93
2017-04-07T04:50:57.384Z,22.98
2017-04-07T04:51:57.345Z,22.91
2017-04-07T04:52:57.248Z,22.94
2017-04-07T04:53:57.187Z,22.87
2017-04-07T04:54:57.124Z,22.94
2017-04-07T04:55:57.309Z,22.9
2017-04-07T04:56:56.997Z,22.99
2017-04-07T04:57:56.938Z,22.96
2017-04-07T04:58:56.871Z,22.98
2017-04-07T04:59:56.814Z,22.96
2017-04-07T05:00:56.758Z,22.96
2017-04-07T05:01:56.688Z,22.94
2017-04-07T05:02:56.620Z,22.9
2017-04-07T05:03:56.556Z,22.94
2017-04-07T05:04:56.496Z,22.93
2017-04-07T05:05:56.437Z,22.93
2017-04-07T05:06:56.372Z,22.96
2017-04-07T05:07:56.306Z,22.96
2017-04-07T05:08:56.254Z,22.94
2017-04-07T05:09:56.182Z,22.93
2017-04-07T05:10:56.120Z,22.94
2017-04-07T05:11:56.061Z,22.88
2017-04-07T05:12:55.994Z,23
2017-04-07T05:13:55.932Z,22.93
2017-04-07T05:14:55.897Z,22.99
2017-04-07T05:15:55.806Z,22.99
2017-04-07T05:16:55.748Z,22.93
2017-04-07T05:17:55.681Z,22.84
2017-04-07T05:18:55.619Z,22.94
2017-04-07T05:19:55.252Z,22.93
2017-04-07T05:20:55.493Z,22.93
2017-04-07T05:21:55.432Z,23
2017-04-07T05:22:55.367Z,22.91
2017-04-07T05:23:55.305Z,22.93
2017-04-07T05:24:55.242Z,22.94
2017-04-07T05:25:55.179Z,22.94
2017-04-07T05:26:55.115Z,22.9
2017-04-07T05:27:55.053Z,22.91
2017-04-07T05:28:54.992Z,22.94
2017-04-07T05:29:54.928Z,22.98
2017-04-07T05:30:54.966Z,22.98
2017-04-07T05:31:54.805Z,22.98
2017-04-07T05:32:54.743Z,22.98
2017-04-07T05:33:54.685Z,22.91
2017-04-07T05:34:54.617Z,22.9
2017-04-07T05:35:54.802Z,22.9
2017-04-07T05:36:54.491Z,22.9
2017-04-07T05:37:54.426Z,22.94
2017-04-07T05:38:54.364Z,22.96
2017-04-07T05:39:54.302Z,22.99
2017-04-07T05:40:54.238Z,22.94
2017-04-07T05:41:54.184Z,22.9
2017-04-07T05:42:54.121Z,22.98
2017-04-07T05:43:54.050Z,22.99
2017-04-07T05:44:53.987Z,22.94
2017-04-07T05:45:53.925Z,22.9
2017-04-07T05:46:53.895Z,22.96
2017-04-07T05:47:53.799Z,22.87
2017-04-07T05:48:53.734Z,22.98
2017-04-07T05:49:53.372Z,22.9
2017-04-07T05:50:53.616Z,22.9
2017-04-07T05:51:53.552Z,23
2017-04-07T05:52:53.485Z,22.88
2017-04-07T05:53:53.424Z,22.93
2017-04-07T05:54:53.362Z,23
2017-04-07T05:55:53.296Z,22.99
2017-04-07T05:56:53.230Z,22.93
2017-04-07T05:57:53.174Z,22.88
2017-04-07T05:58:53.110Z,22.93
2017-04-07T05:59:53.053Z,22.91
2017-04-07T06:00:52.991Z,22.91
2017-04-07T06:01:52.920Z,22.85
2017-04-07T06:02:52.869Z,22.98
2017-04-07T06:03:52.793Z,22.91
2017-04-07T06:04:52.732Z,22.96
2017-04-07T06:05:52.770Z,22.88
2017-04-07T06:06:52.638Z,22.96
2017-04-07T06:07:52.546Z,23.02
2017-04-07T06:08:52.480Z,22.9
2017-04-07T06:09:52.419Z,22.93
2017-04-07T06:10:52.613Z,22.93
2017-04-07T06:11:52.292Z,22.94
2017-04-07T06:12:52.226Z,22.99
2017-04-07T06:13:51.867Z,22.98
2017-04-07T06:14:52.111Z,22.91
2017-04-07T06:15:52.042Z,22.91
2017-04-07T06:16:51.687Z,23
2017-04-07T06:17:51.933Z,22.93
2017-04-07T06:18:51.854Z,22.96
2017-04-07T06:19:51.791Z,22.94
2017-04-07T06:20:51.727Z,22.98
2017-04-07T06:21:51.667Z,23
2017-04-07T06:22:51.603Z,22.93
2017-04-07T06:23:51.542Z,22.99
2017-04-07T06:24:51.508Z,22.96
2017-04-07T06:25:51.419Z,22.94
2017-04-07T06:26:51.355Z,22.9
2017-04-07T06:27:50.984Z,22.9
2017-04-07T06:28:51.231Z,22.96
2017-04-07T06:29:51.201Z,22.88
2017-04-07T06:30:51.121Z,23
2017-04-07T06:31:51.039Z,23
2017-04-07T06:32:51.018Z,22.99
2017-04-07T06:33:50.915Z,22.91
2017-04-07T06:34:50.852Z,22.94
2017-04-07T06:35:50.793Z,22.98
2017-04-07T06:36:50.726Z,22.93
2017-04-07T06:37:50.663Z,22.98
2017-04-07T06:38:50.602Z,22.87
2017-04-07T06:39:50.235Z,22.93
2017-04-07T06:40:50.476Z,22.87
2017-04-07T06:41:50.433Z,22.9
2017-04-07T06:42:50.378Z,22.99
2017-04-07T06:43:50.295Z,23
2017-04-07T06:44:50.232Z,22.93
2017-04-07T06:45:50.544Z,22.91
2017-04-07T06:46:50.098Z,23.02
2017-04-07T06:47:50.034Z,22.94
2017-04-07T06:48:49.974Z,22.96
2017-04-07T06:49:49.910Z,22.93
2017-04-07T06:50:50.099Z,22.96
2017-04-07T06:51:49.789Z,22.93
2017-04-07T06:52:49.420Z,23
2017-04-07T06:53:49.660Z,22.88
2017-04-07T06:54:49.299Z,23
2017-04-07T06:55:49.256Z,22.84
2017-04-07T06:56:49.485Z,22.91
2017-04-07T06:57:49.106Z,22.93
2017-04-07T06:58:49.371Z,22.93
2017-04-07T06:59:49.290Z,22.99
2017-04-07T07:00:49.218Z,22.9
2017-04-07T07:01:49.158Z,22.91
2017-04-07T07:02:49.093Z,22.98
2017-04-07T07:03:49.030Z,22.9
2017-04-07T07:04:48.965Z,22.93
2017-04-07T07:05:49.050Z,22.88
2017-04-07T07:06:48.841Z,22.94
2017-04-07T07:07:48.787Z,22.91
2017-04-07T07:08:48.714Z,22.94
2017-04-07T07:09:48.652Z,22.94
2017-04-07T07:10:48.590Z,23
2017-04-07T07:11:48.528Z,22.9
2017-04-07T07:12:48.460Z,22.91
2017-04-07T07:13:48.398Z,22.98
2017-04-07T07:14:48.341Z,22.94
2017-04-07T07:15:48.278Z,22.99
2017-04-07T07:16:48.217Z,22.93
2017-04-07T07:17:48.149Z,22.93
2017-04-07T07:18:48.087Z,22.88
2017-04-07T07:19:47.726Z,22.94
2017-04-07T07:20:47.662Z,22.9
2017-04-07T07:21:47.902Z,22.93
2017-04-07T07:22:47.837Z,22.93
2017-04-07T07:23:47.774Z,22.94
2017-04-07T07:24:47.714Z,22.96
2017-04-07T07:25:47.646Z,22.98
2017-04-07T07:26:47.589Z,22.88
2017-04-07T07:27:47.523Z,22.88
2017-04-07T07:28:47.155Z,22.84
2017-04-07T07:29:47.101Z,22.98
2017-04-07T07:30:47.353Z,22.9
2017-04-07T07:31:47.278Z,22.87
2017-04-07T07:32:47.217Z,22.96
2017-04-07T07:33:46.840Z,22.98
2017-04-07T07:34:47.082Z,22.91
2017-04-07T07:35:46.720Z,22.88
2017-04-07T07:36:46.963Z,22.87
2017-04-07T07:37:46.923Z,22.94
2017-04-07T07:38:46.920Z,22.91
2017-04-07T07:39:46.774Z,22.9
2017-04-07T07:40:46.704Z,22.91
2017-04-07T07:41:46.642Z,22.99
2017-04-07T07:42:46.576Z,22.88
2017-04-07T07:43:46.219Z,22.98
2017-04-07T07:44:46.459Z,22.96
2017-04-07T07:45:46.426Z,22.9
2017-04-07T07:46:46.033Z,22.91
2017-04-07T07:47:46.263Z,22.84
2017-04-07T07:48:46.206Z,22.81
2017-04-07T07:49:46.143Z,22.73
2017-04-07T07:50:45.896Z,22.72
2017-04-07T07:51:45.729Z,22.72
2017-04-07T07:52:46.071Z,22.63
2017-04-07T07:53:45.929Z,22.65
2017-04-07T07:54:45.833Z,22.72
2017-04-07T07:55:45.909Z,22.68
2017-04-07T07:56:45.405Z,22.59
2017-04-07T07:57:45.636Z,22.55
2017-04-07T07:58:45.575Z,22.53
2017-04-07T07:59:45.516Z,22.62
2017-04-07T08:00:45.697Z,22.68
2017-04-07T08:01:45.383Z,22.78
2017-04-07T08:02:45.320Z,22.54
2017-04-07T08:03:45.259Z,22.62
2017-04-07T08:04:45.199Z,22.53
2017-04-07T08:05:45.130Z,22.6
2017-04-07T08:06:45.066Z,22.55
2017-04-07T08:07:45.021Z,22.55
2017-04-07T08:08:44.658Z,22.54
2017-04-07T08:09:44.917Z,22.7
2017-04-07T08:10:44.814Z,22.76
2017-04-07T08:11:44.488Z,22.84
2017-04-07T08:12:44.714Z,22.8
2017-04-07T08:13:44.720Z,22.8
2017-04-07T08:14:44.572Z,22.84
2017-04-07T08:15:44.651Z,22.8
2017-04-07T08:16:44.438Z,22.83
2017-04-07T08:17:44.372Z,22.94
2017-04-07T08:18:44.309Z,22.93
2017-04-07T08:19:44.344Z,22.93
2017-04-07T08:20:44.281Z,22.93
2017-04-07T08:21:44.125Z,22.94
2017-04-07T08:22:44.055Z,22.98
2017-04-07T08:23:43.994Z,22.99
2017-04-07T08:24:43.944Z,23.02
2017-04-07T08:25:43.867Z,22.99
2017-04-07T08:26:43.806Z,23.03
2017-04-07T08:27:43.745Z,23.06
2017-04-07T08:28:43.680Z,23.02
2017-04-07T08:29:43.617Z,23.05
2017-04-07T08:30:43.552Z,23.08
2017-04-07T08:31:43.490Z,23.12
2017-04-07T08:32:43.458Z,23.08
2017-04-07T08:33:43.364Z,23.17
2017-04-07T08:34:43.304Z,23.09
2017-04-07T08:35:43.238Z,23.12
2017-04-07T08:36:43.178Z,23.13
2017-04-07T08:37:43.134Z,23.13
2017-04-07T08:38:42.749Z,23.17
2017-04-07T08:39:42.988Z,23.12
2017-04-07T08:40:42.930Z,23.13
2017-04-07T08:41:42.869Z,23.23
2017-04-07T08:42:42.798Z,23.2
2017-04-07T08:43:42.735Z,23.23
2017-04-07T08:44:42.676Z,23.25
2017-04-07T08:45:42.624Z,23.25
2017-04-07T08:46:42.549Z,23.2
2017-04-07T08:47:42.499Z,23.21
2017-04-07T08:48:42.421Z,23.24
2017-04-07T08:49:42.359Z,23.28
2017-04-07T08:50:42.398Z,23.39
2017-04-07T08:51:42.234Z,23.27
2017-04-07T08:52:42.174Z,23.31
2017-04-07T08:53:42.130Z,23.36
2017-04-07T08:54:42.048Z,23.37
2017-04-07T08:55:42.088Z,23.31
2017-04-07T08:56:41.924Z,23.27
2017-04-07T08:57:41.252Z,23.28
2017-04-07T08:58:41.795Z,23.28
2017-04-07T08:59:41.736Z,23.32
2017-04-07T09:00:41.678Z,23.37
2017-04-07T09:01:41.617Z,23.32
2017-04-07T09:02:41.547Z,23.44
2017-04-07T09:03:41.489Z,23.43
2017-04-07T09:04:41.422Z,23.39
2017-04-07T09:05:41.359Z,23.41
2017-04-07T09:06:41.300Z,23.39
2017-04-07T09:07:41.240Z,23.44
2017-04-07T09:08:41.174Z,23.44
2017-04-07T09:09:41.113Z,23.44
2017-04-07T09:10:40.757Z,23.48
2017-04-07T09:11:41.015Z,23.55
2017-04-07T09:12:40.924Z,23.55
2017-04-07T09:13:40.862Z,23.56
2017-04-07T09:14:40.798Z,23.55
2017-04-07T09:15:40.437Z,23.55
2017-04-07T09:16:40.370Z,23.46
2017-04-07T09:17:40.620Z,23.56
2017-04-07T09:18:40.547Z,23.55
2017-04-07T09:19:39.881Z,23.47
2017-04-07T09:20:40.124Z,23.5
2017-04-07T09:21:40.370Z,23.54
2017-04-07T09:22:40.303Z,23.54
2017-04-07T09:23:40.263Z,23.58
2017-04-07T09:24:40.180Z,23.58
2017-04-07T09:25:40.139Z,23.51
2017-04-07T09:26:40.049Z,23.59
2017-04-07T09:27:39.989Z,23.56
2017-04-07T09:28:39.931Z,23.48
2017-04-07T09:29:39.597Z,23.62
2017-04-07T09:30:39.803Z,23.59
2017-04-07T09:31:39.442Z,23.56
2017-04-07T09:32:39.679Z,23.61
2017-04-07T09:33:39.618Z,23.54
2017-04-07T09:34:39.553Z,23.59
2017-04-07T09:35:39.509Z,23.61
2017-04-07T09:36:39.434Z,23.51
2017-04-07T09:37:39.377Z,23.62
2017-04-07T09:38:39.308Z,23.59
2017-04-07T09:39:39.340Z,23.58
2017-04-07T09:40:39.182Z,23.59
2017-04-07T09:41:39.125Z,23.65
2017-04-07T09:42:39.056Z,23.56
2017-04-07T09:43:38.997Z,23.73
2017-04-07T09:44:38.642Z,23.68
2017-04-07T09:45:38.605Z,23.66
2017-04-07T09:46:38.507Z,23.65
2017-04-07T09:47:38.747Z,23.62
2017-04-07T09:48:39.500Z,23.68
2017-04-07T09:49:38.317Z,23.65
2017-04-07T09:50:38.569Z,23.63
2017-04-07T09:51:38.494Z,23.69
2017-04-07T09:52:38.432Z,23.73
2017-04-07T09:53:38.074Z,23.69
2017-04-07T09:54:38.023Z,23.74
2017-04-07T09:55:38.252Z,23.69
2017-04-07T09:56:38.185Z,23.73
2017-04-07T09:57:38.137Z,23.71
2017-04-07T09:58:38.073Z,23.69
2017-04-07T09:59:38.000Z,23.73
2017-04-07T10:00:37.937Z,23.74
2017-04-07T10:01:37.570Z,23.71
2017-04-07T10:02:37.832Z,23.78
2017-04-07T10:03:37.783Z,23.78
2017-04-07T10:04:37.688Z,23.76
2017-04-07T10:05:37.628Z,23.74
2017-04-07T10:06:37.259Z,23.78
2017-04-07T10:07:37.528Z,23.78
2017-04-07T10:08:37.442Z,23.81
2017-04-07T10:09:37.385Z,23.83
2017-04-07T10:10:37.314Z,23.81
2017-04-07T10:11:37.251Z,23.76
2017-04-07T10:12:37.198Z,23.83
2017-04-07T10:13:37.127Z,23.8
2017-04-07T10:14:37.067Z,23.84
2017-04-07T10:15:37.002Z,23.78
2017-04-07T10:16:36.639Z,23.83
2017-04-07T10:17:36.883Z,23.83
2017-04-07T10:18:36.842Z,23.81
2017-04-07T10:19:36.759Z,23.83
2017-04-07T10:20:36.702Z,23.86
2017-04-07T10:21:36.339Z,23.78
2017-04-07T10:22:36.579Z,23.83
2017-04-07T10:23:36.207Z,23.78
2017-04-07T10:24:36.446Z,23.81
2017-04-07T10:25:36.385Z,23.83
2017-04-07T10:26:36.329Z,23.8
2017-04-07T10:27:35.958Z,23.83
2017-04-07T10:28:35.903Z,23.81
2017-04-07T10:29:36.138Z,23.73
2017-04-07T10:30:36.077Z,23.69
2017-04-07T10:31:36.013Z,23.63
2017-04-07T10:32:35.948Z,23.71
2017-04-07T10:33:35.886Z,23.58
2017-04-07T10:34:35.827Z,23.61
2017-04-07T10:35:35.767Z,23.59
2017-04-07T10:36:35.710Z,23.61
2017-04-07T10:37:35.639Z,23.54
2017-04-07T10:38:35.581Z,23.54
2017-04-07T10:39:35.515Z,23.56
2017-04-07T10:40:35.453Z,23.55
2017-04-07T10:41:35.393Z,23.5
2017-04-07T10:42:35.329Z,23.54
2017-04-07T10:43:35.270Z,23.59
2017-04-07T10:44:35.205Z,23.55
2017-04-07T10:45:35.195Z,23.55
2017-04-07T10:46:35.079Z,23.41
2017-04-07T10:47:35.019Z,23.5
2017-04-07T10:48:34.961Z,23.44
2017-04-07T10:49:34.893Z,23.44
2017-04-07T10:50:34.832Z,23.44
2017-04-07T10:51:34.779Z,23.41
2017-04-07T10:52:34.708Z,23.46
2017-04-07T10:53:34.646Z,23.37
2017-04-07T10:54:34.583Z,23.36
2017-04-07T10:55:34.550Z,23.31
2017-04-07T10:56:34.480Z,23.34
2017-04-07T10:57:34.396Z,23.31
2017-04-07T10:58:34.330Z,23.31
2017-04-07T10:59:34.274Z,23.32
2017-04-07T11:00:34.304Z,23.41
2017-04-07T11:01:34.149Z,23.32
2017-04-07T11:02:34.084Z,23.36
2017-04-07T11:03:34.028Z,23.34
2017-04-07T11:04:33.960Z,23.31
2017-04-07T11:05:33.898Z,23.41
2017-04-07T11:06:33.837Z,23.36
2017-04-07T11:07:33.780Z,23.46
2017-04-07T11:08:33.708Z,23.46
2017-04-07T11:09:33.652Z,23.44
2017-04-07T11:10:33.586Z,23.41
2017-04-07T11:11:33.523Z,23.46
2017-04-07T11:12:33.462Z,23.44
2017-04-07T11:13:33.397Z,23.47
2017-04-07T11:14:33.335Z,23.54
2017-04-07T11:15:33.280Z,23.55
2017-04-07T11:16:33.219Z,23.56
2017-04-07T11:17:33.270Z,23.54
2017-04-07T11:18:33.188Z,23.48
2017-04-07T11:19:33.024Z,23.56
2017-04-07T11:20:32.961Z,23.51
2017-04-07T11:21:32.602Z,23.55
2017-04-07T11:22:32.872Z,23.48
2017-04-07T11:23:32.773Z,23.51
2017-04-07T11:24:32.711Z,23.5
2017-04-07T11:25:32.776Z,23.56
2017-04-07T11:26:32.588Z,23.55
2017-04-07T11:27:32.582Z,23.65
2017-04-07T11:28:32.614Z,23.55
2017-04-07T11:29:32.491Z,23.61
2017-04-07T11:30:32.046Z,23.62
2017-04-07T11:31:32.279Z,23.62
2017-04-07T11:32:31.917Z,23.59
2017-04-07T11:33:32.152Z,23.63
2017-04-07T11:34:32.158Z,23.59
2017-04-07T11:35:32.032Z,23.58
2017-04-07T11:36:31.770Z,23.56
2017-04-07T11:37:31.906Z,23.58
2017-04-07T11:38:31.614Z,23.59
2017-04-07T11:39:31.786Z,23.65
2017-04-07T11:40:31.414Z,23.59
2017-04-07T11:41:31.653Z,23.63
2017-04-07T11:42:31.603Z,23.66
2017-04-07T11:43:31.304Z,23.65
2017-04-07T11:44:31.470Z,23.66
2017-04-07T11:45:31.404Z,23.66
2017-04-07T11:46:31.344Z,23.65
2017-04-07T11:47:31.320Z,23.62
2017-04-07T11:48:31.240Z,23.59
2017-04-07T11:49:31.174Z,23.77
2017-04-07T11:50:30.943Z,23.73
2017-04-07T11:51:31.069Z,23.74
2017-04-07T11:52:30.682Z,23.66
2017-04-07T11:53:30.910Z,23.69
2017-04-07T11:54:30.840Z,23.77
2017-04-07T11:55:30.782Z,23.73
2017-04-07T11:56:30.721Z,23.74
2017-04-07T11:57:30.362Z,23.68
2017-04-07T11:58:30.607Z,23.59
2017-04-07T11:59:30.537Z,23.55
2017-04-07T12:00:30.571Z,23.44
2017-04-07T12:01:30.410Z,23.36
2017-04-07T12:02:30.445Z,23.31
2017-04-07T12:03:30.285Z,23.37
2017-04-07T12:04:29.922Z,23.31
2017-04-07T12:05:30.161Z,23.39
2017-04-07T12:06:30.112Z,23.41
2017-04-07T12:07:30.041Z,23.48
2017-04-07T12:08:29.671Z,23.51
2017-04-07T12:09:29.607Z,23.43
2017-04-07T12:10:30.151Z,23.51
2017-04-07T12:11:29.786Z,23.55
2017-04-07T12:12:29.722Z,23.51
2017-04-07T12:13:29.707Z,23.56
2017-04-07T12:14:29.614Z,23.48
2017-04-07T12:15:29.836Z,23.5
2017-04-07T12:16:29.473Z,23.56
2017-04-07T12:17:29.415Z,23.51
2017-04-07T12:18:29.347Z,23.51
2017-04-07T12:19:29.294Z,23.5
2017-04-07T12:20:29.223Z,23.48
2017-04-07T12:21:28.861Z,23.56
2017-04-07T12:22:29.100Z,23.54
2017-04-07T12:23:29.035Z,23.47
2017-04-07T12:24:28.980Z,23.5
2017-04-07T12:25:28.913Z,23.55
2017-04-07T12:26:28.585Z,23.48
2017-04-07T12:27:28.785Z,23.48
2017-04-07T12:28:28.430Z,23.51
2017-04-07T12:29:28.666Z,23.58
2017-04-07T12:30:28.607Z,23.46
2017-04-07T12:31:28.542Z,23.51
2017-04-07T12:32:28.481Z,23.54
2017-04-07T12:33:28.416Z,23.55
2017-04-07T12:34:28.351Z,23.58
2017-04-07T12:35:28.292Z,23.51
2017-04-07T12:36:28.245Z,23.55
2017-04-07T12:37:28.167Z,23.55
2017-04-07T12:38:28.104Z,23.55
2017-04-07T12:39:28.045Z,23.44
2017-04-07T12:40:27.983Z,23.55
2017-04-07T12:41:27.929Z,23.44
2017-04-07T12:42:27.902Z,23.51
2017-04-07T12:43:27.801Z,23.55
2017-04-07T12:44:27.734Z,23.47
2017-04-07T12:45:27.783Z,23.41
2017-04-07T12:46:27.625Z,23.47
2017-04-07T12:47:27.567Z,23.47
2017-04-07T12:48:27.486Z,23.5
2017-04-07T12:49:27.453Z,23.51
2017-04-07T12:50:27.471Z,23.47
2017-04-07T12:51:27.301Z,23.48
2017-04-07T12:52:27.236Z,23.39
2017-04-07T12:53:27.171Z,23.41
2017-04-07T12:54:27.112Z,23.46
2017-04-07T12:55:27.045Z,23.48
2017-04-07T12:56:26.982Z,23.48
2017-04-07T12:57:27.272Z,23.44
2017-04-07T12:58:26.863Z,23.4
2017-04-07T12:59:26.801Z,23.46